createdAt,value
2018-06-14T00:00:37.226Z,10.13
2018-06-14T00:03:05.758Z,11.68
2018-06-14T00:05:34.337Z,8.73
2018-06-14T00:08:02.847Z,43.20
2018-06-14T00:10:31.373Z,13.35
2018-06-14T00:12:59.961Z,11.35
2018-06-14T00:15:28.474Z,12.25
2018-06-14T00:17:56.982Z,13.58
2018-06-14T00:20:25.487Z,8.55
2018-06-14T00:22:54.008Z,12.37
2018-06-14T00:25:22.516Z,10.13
2018-06-14T00:27:51.000Z,10.72
2018-06-14T00:30:19.557Z,12.37
2018-06-14T00:32:48.125Z,12.03
2018-06-14T00:35:16.654Z,12.70
2018-06-14T00:37:45.177Z,7.67
2018-06-14T00:40:13.741Z,8.25
2018-06-14T00:42:42.249Z,10.40
2018-06-14T00:45:10.731Z,10.82
2018-06-14T00:47:39.248Z,12.65
2018-06-14T00:50:07.798Z,19.40
2018-06-14T00:52:36.339Z,9.55
2018-06-14T00:55:04.895Z,11.25
2018-06-14T00:57:33.516Z,13.65
2018-06-14T01:00:02.013Z,11.10
2018-06-14T01:02:30.554Z,10.95
2018-06-14T01:04:59.029Z,8.58
2018-06-14T01:07:27.536Z,10.82
2018-06-14T01:09:56.057Z,9.48
2018-06-14T01:12:24.572Z,9.45
2018-06-14T01:14:53.096Z,13.10
2018-06-14T01:17:21.666Z,9.40
2018-06-14T01:19:50.206Z,12.88
2018-06-14T01:22:18.740Z,10.05
2018-06-14T01:24:47.243Z,10.43
2018-06-14T01:27:15.770Z,15.70
2018-06-14T01:29:44.347Z,8.93
2018-06-14T01:32:12.851Z,7.97
2018-06-14T01:34:41.360Z,13.60
2018-06-14T01:37:09.858Z,10.55
2018-06-14T01:39:38.342Z,9.53
2018-06-14T01:42:06.888Z,11.48
2018-06-14T01:44:35.453Z,11.78
2018-06-14T01:47:03.950Z,6.20
2018-06-14T01:49:32.476Z,5.85
2018-06-14T01:52:01.032Z,10.03
2018-06-14T01:54:29.524Z,9.58
2018-06-14T01:56:58.026Z,8.33
2018-06-14T01:59:26.298Z,6.47
2018-06-14T02:01:54.895Z,8.58
2018-06-14T02:04:23.422Z,7.83
2018-06-14T02:06:51.925Z,7.22
2018-06-14T02:09:20.422Z,7.08
2018-06-14T02:11:48.951Z,8.33
2018-06-14T02:14:17.448Z,6.50
2018-06-14T02:16:45.966Z,11.20
2018-06-14T02:19:14.509Z,8.73
2018-06-14T02:21:43.033Z,14.05
2018-06-14T02:24:11.605Z,6.65
2018-06-14T02:26:40.119Z,5.97
2018-06-14T02:29:08.646Z,5.42
2018-06-14T02:31:37.137Z,8.18
2018-06-14T02:34:05.727Z,4.70
2018-06-14T02:36:34.319Z,8.48
2018-06-14T02:39:02.910Z,6.62
2018-06-14T02:41:31.455Z,5.15
2018-06-14T02:44:00.023Z,7.72
2018-06-14T02:46:28.524Z,11.88
2018-06-14T02:48:57.018Z,6.40
2018-06-14T02:51:25.558Z,9.45
2018-06-14T02:53:54.098Z,8.95
2018-06-14T02:56:22.580Z,11.80
2018-06-14T02:58:51.168Z,7.80
2018-06-14T03:01:19.709Z,9.85
2018-06-14T03:03:48.247Z,13.80
2018-06-14T03:06:16.754Z,9.65
2018-06-14T03:08:45.304Z,5.58
2018-06-14T03:11:13.852Z,5.28
2018-06-14T03:13:42.405Z,6.60
2018-06-14T03:16:10.935Z,5.25
2018-06-14T03:18:39.482Z,12.13
2018-06-14T03:21:08.032Z,9.40
2018-06-14T03:23:36.570Z,5.30
2018-06-14T03:26:05.175Z,6.90
2018-06-14T03:28:33.690Z,8.30
2018-06-14T03:31:02.255Z,9.05
2018-06-14T03:33:30.757Z,8.50
2018-06-14T03:35:59.291Z,10.38
2018-06-14T03:38:27.788Z,11.78
2018-06-14T03:40:56.323Z,10.23
2018-06-14T03:43:24.856Z,4.12
2018-06-14T03:45:53.351Z,5.58
2018-06-14T03:48:21.939Z,8.23
2018-06-14T03:50:50.514Z,12.55
2018-06-14T03:53:19.025Z,6.90
2018-06-14T03:55:47.539Z,11.83
2018-06-14T03:58:16.547Z,8.08
2018-06-14T04:00:45.083Z,8.73
2018-06-14T04:03:13.602Z,9.50
2018-06-14T04:05:42.105Z,10.13
2018-06-14T04:08:10.607Z,5.22
2018-06-14T04:10:39.097Z,7.08
2018-06-14T04:13:07.618Z,10.38
2018-06-14T04:15:36.105Z,15.68
2018-06-14T04:18:04.627Z,8.50
2018-06-14T04:20:34.977Z,5.97
2018-06-14T04:23:03.404Z,6.60
2018-06-14T04:25:31.916Z,6.15
2018-06-14T04:28:00.398Z,16.75
2018-06-14T04:30:28.902Z,8.20
2018-06-14T04:32:57.434Z,8.43
2018-06-14T04:35:25.958Z,7.60
2018-06-14T04:37:54.493Z,5.05
2018-06-14T04:40:22.992Z,7.28
2018-06-14T04:42:51.509Z,7.37
2018-06-14T04:45:20.058Z,4.62
2018-06-14T04:47:48.532Z,5.35
2018-06-14T04:50:17.100Z,10.30
2018-06-14T04:52:45.622Z,7.30
2018-06-14T04:55:14.201Z,9.93
2018-06-14T04:57:42.736Z,18.45
2018-06-14T05:00:11.245Z,10.15
2018-06-14T05:02:39.749Z,8.75
2018-06-14T05:05:08.814Z,10.03
2018-06-14T05:07:37.357Z,12.47
2018-06-14T05:10:05.898Z,7.08
2018-06-14T05:12:34.412Z,6.70
2018-06-14T05:15:03.056Z,5.67
2018-06-14T05:17:31.543Z,6.65
2018-06-14T05:20:00.107Z,7.40
2018-06-14T05:22:28.592Z,14.58
2018-06-14T05:24:57.090Z,8.75
2018-06-14T05:27:25.694Z,9.48
2018-06-14T05:29:54.194Z,9.40
2018-06-14T05:32:22.678Z,14.80
2018-06-14T05:34:51.182Z,4.05
2018-06-14T05:37:19.681Z,9.70
2018-06-14T05:39:48.198Z,8.93
2018-06-14T05:42:16.718Z,12.80
2018-06-14T05:44:45.262Z,7.58
2018-06-14T05:47:13.815Z,7.55
2018-06-14T05:49:42.327Z,6.50
2018-06-14T05:52:10.875Z,11.10
2018-06-14T05:54:39.643Z,6.97
2018-06-14T05:57:08.245Z,15.03
2018-06-14T05:59:36.760Z,9.58
2018-06-14T06:02:05.367Z,7.78
2018-06-14T06:04:33.873Z,16.42
2018-06-14T06:07:02.436Z,7.87
2018-06-14T06:09:30.909Z,10.20
2018-06-14T06:11:59.449Z,7.83
2018-06-14T06:14:27.967Z,5.45
2018-06-14T06:16:56.500Z,4.95
2018-06-14T06:19:25.530Z,11.12
2018-06-14T06:21:54.062Z,8.98
2018-06-14T06:24:22.626Z,7.60
2018-06-14T06:26:51.168Z,4.28
2018-06-14T06:29:19.670Z,6.30
2018-06-14T06:31:48.183Z,9.70
2018-06-14T06:34:16.747Z,11.80
2018-06-14T06:36:45.261Z,7.80
2018-06-14T06:39:13.798Z,8.83
2018-06-14T06:41:42.319Z,7.12
2018-06-14T06:44:10.930Z,5.75
2018-06-14T06:46:39.472Z,10.88
2018-06-14T06:49:08.020Z,7.28
2018-06-14T06:51:36.538Z,5.87
2018-06-14T06:54:05.079Z,7.03
2018-06-14T06:56:33.735Z,7.40
2018-06-14T06:59:02.243Z,16.10
2018-06-14T07:01:30.792Z,5.83
2018-06-14T07:03:59.330Z,8.85
2018-06-14T07:06:27.872Z,10.13
2018-06-14T07:08:56.341Z,8.38
2018-06-14T07:11:24.892Z,8.78
2018-06-14T07:13:53.342Z,8.25
2018-06-14T07:16:21.945Z,6.65
2018-06-14T07:18:50.444Z,10.63
2018-06-14T07:21:19.002Z,5.87
2018-06-14T07:23:47.490Z,6.30
2018-06-14T07:26:16.014Z,8.48
2018-06-14T07:28:44.522Z,4.75
2018-06-14T07:31:13.066Z,7.00
2018-06-14T07:33:41.610Z,9.45
2018-06-14T07:36:10.135Z,10.58
2018-06-14T07:38:38.630Z,9.23
2018-06-14T07:41:07.154Z,7.72
2018-06-14T07:43:35.732Z,6.62
2018-06-14T07:46:04.281Z,8.53
2018-06-14T07:48:32.868Z,5.22
2018-06-14T07:51:01.488Z,8.20
2018-06-14T07:53:30.374Z,7.42
2018-06-14T07:55:59.040Z,12.85
2018-06-14T07:58:27.611Z,8.50
2018-06-14T08:00:56.150Z,7.12
2018-06-14T08:03:24.680Z,5.00
2018-06-14T08:05:53.190Z,7.58
2018-06-14T08:08:21.707Z,5.90
2018-06-14T08:10:50.194Z,9.13
2018-06-14T08:13:18.706Z,9.63
2018-06-14T08:15:47.181Z,6.37
2018-06-14T08:18:15.823Z,6.60
2018-06-14T08:20:44.329Z,6.15
2018-06-14T08:23:12.850Z,7.58
2018-06-14T08:25:41.396Z,6.45
2018-06-14T08:28:09.940Z,8.73
2018-06-14T08:30:38.450Z,3.42
2018-06-14T08:33:06.967Z,8.20
2018-06-14T08:35:35.471Z,4.80
2018-06-14T08:38:04.047Z,5.55
2018-06-14T08:40:32.569Z,9.28
2018-06-14T08:43:01.080Z,4.08
2018-06-14T08:45:29.636Z,11.83
2018-06-14T08:47:58.159Z,6.10
2018-06-14T08:50:26.710Z,5.37
2018-06-14T08:52:55.218Z,5.60
2018-06-14T08:55:23.714Z,7.95
2018-06-14T08:57:52.220Z,6.95
2018-06-14T09:00:20.737Z,12.98
2018-06-14T09:02:49.231Z,5.97
2018-06-14T09:05:17.726Z,4.42
2018-06-14T09:07:46.223Z,5.33
2018-06-14T09:10:14.758Z,6.85
2018-06-14T09:12:43.296Z,5.22
2018-06-14T09:15:11.778Z,8.75
2018-06-14T09:17:40.308Z,11.88
2018-06-14T09:20:08.803Z,5.33
2018-06-14T09:22:37.413Z,7.55
2018-06-14T09:25:05.927Z,4.70
2018-06-14T09:27:34.404Z,8.30
2018-06-14T09:30:02.904Z,3.80
2018-06-14T09:32:31.089Z,4.65
2018-06-14T09:34:59.580Z,6.03
2018-06-14T09:37:28.102Z,4.85
2018-06-14T09:39:56.602Z,8.18
2018-06-14T09:42:25.119Z,7.58
2018-06-14T09:44:53.674Z,7.50
2018-06-14T09:47:22.194Z,7.58
2018-06-14T09:49:50.698Z,11.40
2018-06-14T09:52:19.232Z,10.03
2018-06-14T09:54:47.743Z,9.63
2018-06-14T09:57:16.875Z,6.90
2018-06-14T09:59:45.398Z,11.33
2018-06-14T10:02:13.955Z,3.95
2018-06-14T10:04:42.493Z,5.08
2018-06-14T10:07:11.039Z,6.08
2018-06-14T10:09:39.578Z,7.83
2018-06-14T10:12:08.078Z,5.62
2018-06-14T10:14:36.603Z,4.83
2018-06-14T10:17:05.531Z,5.60
2018-06-14T10:19:34.095Z,2.60
2018-06-14T10:22:02.658Z,4.60
2018-06-14T10:24:31.201Z,2.95
2018-06-14T10:26:59.774Z,5.90
2018-06-14T10:29:28.401Z,3.70
2018-06-14T10:31:56.857Z,4.35
2018-06-14T10:34:25.366Z,2.90
2018-06-14T10:36:53.858Z,10.23
2018-06-14T10:39:22.378Z,7.75
2018-06-14T10:41:51.627Z,5.72
2018-06-14T10:44:20.142Z,4.33
2018-06-14T10:46:48.676Z,3.25
2018-06-14T10:49:17.241Z,5.25
2018-06-14T10:51:45.789Z,17.20
2018-06-14T10:54:14.310Z,6.05
2018-06-14T10:56:42.834Z,7.72
2018-06-14T10:59:11.373Z,4.08
2018-06-14T11:01:39.931Z,4.80
2018-06-14T11:04:08.490Z,5.50
2018-06-14T11:06:37.042Z,7.00
2018-06-14T11:09:08.646Z,12.35
2018-06-14T11:11:37.288Z,4.12
2018-06-14T11:14:05.910Z,6.47
2018-06-14T11:16:34.458Z,4.65
2018-06-14T11:19:03.035Z,7.72
2018-06-14T11:21:31.585Z,6.70
2018-06-14T11:24:00.086Z,4.80
2018-06-14T11:26:29.041Z,3.98
2018-06-14T11:28:57.765Z,3.62
2018-06-14T11:31:26.312Z,4.90
2018-06-14T11:33:54.999Z,3.05
2018-06-14T11:36:23.524Z,5.78
2018-06-14T11:38:52.134Z,8.53
2018-06-14T11:41:20.798Z,5.40
2018-06-14T11:43:49.309Z,3.90
2018-06-14T11:46:17.832Z,3.52
2018-06-14T11:48:46.404Z,3.12
2018-06-14T11:51:14.953Z,9.20
2018-06-14T11:53:43.585Z,3.27
2018-06-14T11:56:12.168Z,4.53
2018-06-14T11:58:40.729Z,2.25
2018-06-14T12:01:09.292Z,2.40
2018-06-14T12:03:37.834Z,2.95
2018-06-14T12:06:06.438Z,2.47
2018-06-14T12:08:34.968Z,10.58
2018-06-14T12:11:03.614Z,2.58
2018-06-14T12:13:32.170Z,3.80
2018-06-14T12:16:00.795Z,9.30
2018-06-14T12:18:29.351Z,3.27
2018-06-14T12:20:57.912Z,4.15
2018-06-14T12:23:26.467Z,6.70
2018-06-14T12:25:55.069Z,2.80
2018-06-14T12:28:23.632Z,4.70
2018-06-14T12:30:52.186Z,2.92
2018-06-14T12:33:20.784Z,6.45
2018-06-14T12:35:49.291Z,2.50
2018-06-14T12:38:17.789Z,4.03
2018-06-14T12:40:46.380Z,4.72
2018-06-14T12:43:14.964Z,5.85
2018-06-14T12:45:43.218Z,2.33
2018-06-14T12:48:11.843Z,4.12
2018-06-14T12:50:40.367Z,17.50
2018-06-14T12:53:08.933Z,4.50
2018-06-14T12:55:37.588Z,3.27
2018-06-14T12:58:06.206Z,6.35
2018-06-14T13:00:34.726Z,2.05
2018-06-14T13:03:03.362Z,2.83
2018-06-14T13:05:32.018Z,2.65
2018-06-14T13:08:00.549Z,8.50
2018-06-14T13:10:29.217Z,3.55
2018-06-14T13:12:57.875Z,4.58
2018-06-14T13:15:26.402Z,3.95
2018-06-14T13:17:54.933Z,2.67
2018-06-14T13:20:23.435Z,3.83
2018-06-14T13:22:52.063Z,3.72
2018-06-14T13:25:20.596Z,2.70
2018-06-14T13:27:49.158Z,8.53
2018-06-14T13:30:17.738Z,4.25
2018-06-14T13:32:46.246Z,4.57
2018-06-14T13:35:14.905Z,6.50
2018-06-14T13:37:43.480Z,5.30
2018-06-14T13:40:12.028Z,3.30
2018-06-14T13:42:40.620Z,3.25
2018-06-14T13:45:09.171Z,5.57
2018-06-14T13:47:37.711Z,4.70
2018-06-14T13:50:06.299Z,5.07
2018-06-14T13:52:34.935Z,3.10
2018-06-14T13:55:03.593Z,3.60
2018-06-14T13:57:32.154Z,5.95
2018-06-14T14:00:00.661Z,8.63
2018-06-14T14:02:29.276Z,6.03
2018-06-14T14:04:57.804Z,6.17
2018-06-14T14:07:26.355Z,4.77
2018-06-14T14:09:55.603Z,5.63
2018-06-14T14:12:24.303Z,3.77
2018-06-14T14:14:52.917Z,13.70
2018-06-14T14:17:21.494Z,3.53
2018-06-14T14:19:50.074Z,3.13
2018-06-14T14:22:19.102Z,6.13
2018-06-14T14:24:47.618Z,7.05
2018-06-14T14:27:16.142Z,11.78
2018-06-14T14:29:44.664Z,3.73
2018-06-14T14:32:13.194Z,5.53
2018-06-14T14:34:41.766Z,3.90
2018-06-14T14:37:10.370Z,6.90
2018-06-14T14:39:38.926Z,4.27
2018-06-14T14:42:07.502Z,5.00
2018-06-14T14:44:36.041Z,6.00
2018-06-14T14:47:04.589Z,4.20
2018-06-14T14:49:33.118Z,3.93
2018-06-14T14:52:01.667Z,5.70
2018-06-14T14:54:30.156Z,6.43
2018-06-14T14:56:58.715Z,6.07
2018-06-14T14:59:27.270Z,4.40
2018-06-14T15:01:55.814Z,7.00
2018-06-14T15:04:24.333Z,3.95
2018-06-14T15:06:52.849Z,5.23
2018-06-14T15:09:21.027Z,6.40
2018-06-14T15:11:49.558Z,5.07
2018-06-14T15:14:18.125Z,6.87
2018-06-14T15:16:46.666Z,4.73
2018-06-14T15:19:15.186Z,4.97
2018-06-14T15:21:43.690Z,8.47
2018-06-14T15:24:12.242Z,6.17
2018-06-14T15:26:40.775Z,10.90
2018-06-14T15:29:09.318Z,6.93
2018-06-14T15:31:37.882Z,7.63
2018-06-14T15:34:06.408Z,7.80
2018-06-14T15:36:34.926Z,5.30
2018-06-14T15:39:03.572Z,11.53
2018-06-14T15:41:32.098Z,9.53
2018-06-14T15:44:00.642Z,13.07
2018-06-14T15:46:29.155Z,8.27
2018-06-14T15:48:57.705Z,7.03
2018-06-14T15:51:26.224Z,7.10
2018-06-14T15:53:54.904Z,12.47
2018-06-14T15:56:40.027Z,7.77
2018-06-14T15:59:11.669Z,16.10
2018-06-14T16:01:41.254Z,6.10
2018-06-14T16:04:10.265Z,5.77
2018-06-14T16:06:38.809Z,5.03
2018-06-14T16:09:08.530Z,8.60
2018-06-14T16:11:37.069Z,9.23
2018-06-14T16:14:06.159Z,11.23
2018-06-14T16:16:34.904Z,11.53
2018-06-14T16:19:04.014Z,7.20
2018-06-14T16:21:33.025Z,5.43
2018-06-14T16:24:01.580Z,6.13
2018-06-14T16:26:30.098Z,9.23
2018-06-14T16:28:59.727Z,12.17
2018-06-14T16:31:29.184Z,8.37
2018-06-14T16:33:57.808Z,11.30
2018-06-14T16:36:26.374Z,9.80
2018-06-14T16:38:54.922Z,3.80
2018-06-14T16:41:23.470Z,8.97
2018-06-14T16:43:52.665Z,8.07
2018-06-14T16:46:21.188Z,5.50
2018-06-14T16:48:50.393Z,7.10
2018-06-14T16:51:19.213Z,8.10
2018-06-14T16:53:47.696Z,8.70
2018-06-14T16:56:16.254Z,10.90
2018-06-14T16:58:44.772Z,11.10
2018-06-14T17:01:13.313Z,6.80
2018-06-14T17:03:41.900Z,4.87
2018-06-14T17:06:10.503Z,4.40
2018-06-14T17:08:39.026Z,4.33
2018-06-14T17:11:07.554Z,9.03
2018-06-14T17:13:36.117Z,5.00
2018-06-14T17:16:04.741Z,8.13
2018-06-14T17:18:33.329Z,5.53
2018-06-14T17:21:01.882Z,7.40
2018-06-14T17:23:30.408Z,4.97
2018-06-14T17:25:58.974Z,2.90
2018-06-14T17:28:27.470Z,3.50
2018-06-14T17:30:56.626Z,4.60
2018-06-14T17:33:25.143Z,3.93
2018-06-14T17:35:53.681Z,5.70
2018-06-14T17:38:22.227Z,6.97
2018-06-14T17:40:50.794Z,5.77
2018-06-14T17:43:19.357Z,7.50
2018-06-14T17:45:47.856Z,3.23
2018-06-14T17:48:16.391Z,3.47
2018-06-14T17:50:45.008Z,4.10
2018-06-14T17:53:13.549Z,4.40
2018-06-14T17:55:42.094Z,5.40
2018-06-14T17:58:10.646Z,5.43
2018-06-14T18:00:39.182Z,7.70
2018-06-14T18:03:07.776Z,5.13
2018-06-14T18:05:36.303Z,3.53
2018-06-14T18:08:04.856Z,3.83
2018-06-14T18:10:33.383Z,3.57
2018-06-14T18:13:01.932Z,5.27
2018-06-14T18:15:30.441Z,4.17
2018-06-14T18:17:58.978Z,3.30
2018-06-14T18:20:29.024Z,5.57
2018-06-14T18:22:58.098Z,5.10
2018-06-14T18:25:26.637Z,6.77
2018-06-14T18:27:55.195Z,8.07
2018-06-14T18:30:23.737Z,6.20
2018-06-14T18:32:52.292Z,4.10
2018-06-14T18:35:22.837Z,3.77
2018-06-14T18:37:51.695Z,3.63
2018-06-14T18:40:20.295Z,6.13
2018-06-14T18:42:49.089Z,3.60
2018-06-14T18:45:18.150Z,4.30
2018-06-14T18:47:47.357Z,4.20
2018-06-14T18:50:15.860Z,4.30
2018-06-14T18:52:44.447Z,8.07
2018-06-14T18:55:13.286Z,5.60
2018-06-14T18:57:41.855Z,6.40
2018-06-14T19:00:10.431Z,5.43
2018-06-14T19:02:38.976Z,9.30
2018-06-14T19:05:07.474Z,5.60
2018-06-14T19:07:36.050Z,8.37
2018-06-14T19:10:04.698Z,6.50
2018-06-14T19:12:35.531Z,4.10
2018-06-14T19:15:04.111Z,4.40
2018-06-14T19:17:32.645Z,5.30
2018-06-14T19:20:01.187Z,8.40
2018-06-14T19:22:33.309Z,4.33
2018-06-14T19:25:02.038Z,5.07
2018-06-14T19:27:30.573Z,6.05
2018-06-14T19:30:03.522Z,5.30
2018-06-14T19:32:32.053Z,6.58
2018-06-14T19:35:00.597Z,6.72
2018-06-14T19:37:35.702Z,7.33
2018-06-14T19:40:04.391Z,13.38
2018-06-14T19:42:32.952Z,6.67
2018-06-14T19:45:01.482Z,7.05
2018-06-14T19:47:30.153Z,5.20
2018-06-14T19:50:02.866Z,8.38
2018-06-14T19:52:36.131Z,5.90
2018-06-14T19:55:04.739Z,8.20
2018-06-14T19:57:33.226Z,7.47
2018-06-14T20:00:01.731Z,9.68
2018-06-14T20:02:30.226Z,9.18
2018-06-14T20:04:58.767Z,10.70
2018-06-14T20:07:28.174Z,8.88
2018-06-14T20:09:56.710Z,7.15
2018-06-14T20:12:25.187Z,9.10
2018-06-14T20:14:53.709Z,6.25
2018-06-14T20:17:22.268Z,6.87
2018-06-14T20:19:50.787Z,6.05
2018-06-14T20:22:19.275Z,7.12
2018-06-14T20:24:47.883Z,5.60
2018-06-14T20:27:16.431Z,12.03
2018-06-14T20:29:44.970Z,6.90
2018-06-14T20:32:13.495Z,8.25
2018-06-14T20:34:42.005Z,6.20
2018-06-14T20:37:10.603Z,11.12
2018-06-14T20:39:39.130Z,8.63
2018-06-14T20:42:07.747Z,9.93
2018-06-14T20:44:36.246Z,7.12
2018-06-14T20:47:04.762Z,6.53
2018-06-14T20:49:33.299Z,7.87
2018-06-14T20:52:01.823Z,8.30
2018-06-14T20:54:30.394Z,7.03
2018-06-14T20:56:58.898Z,8.43
2018-06-14T20:59:27.438Z,7.53
2018-06-14T21:01:55.966Z,16.75
2018-06-14T21:04:24.566Z,6.90
2018-06-14T21:06:53.075Z,8.78
2018-06-14T21:09:21.628Z,7.55
2018-06-14T21:11:50.152Z,7.25
2018-06-14T21:14:18.658Z,10.35
2018-06-14T21:16:47.201Z,9.88
2018-06-14T21:19:15.783Z,9.60
2018-06-14T21:21:44.270Z,10.00
2018-06-14T21:24:12.822Z,8.68
2018-06-14T21:26:41.383Z,13.35
2018-06-14T21:29:09.922Z,9.55
2018-06-14T21:31:38.440Z,10.18
2018-06-14T21:34:07.042Z,10.43
2018-06-14T21:36:35.581Z,7.87
2018-06-14T21:39:05.817Z,7.70
2018-06-14T21:41:34.336Z,9.55
2018-06-14T21:44:03.054Z,10.75
2018-06-14T21:46:31.898Z,11.73
2018-06-14T21:49:00.395Z,8.90
2018-06-14T21:51:28.893Z,12.03
2018-06-14T21:53:57.447Z,12.05
2018-06-14T21:56:25.958Z,11.68
2018-06-14T21:58:54.518Z,17.82
2018-06-14T22:01:23.098Z,19.15
2018-06-14T22:03:59.154Z,8.95
2018-06-14T22:06:27.826Z,17.73
2018-06-14T22:08:56.435Z,11.20
2018-06-14T22:11:25.008Z,13.98
2018-06-14T22:13:53.629Z,23.65
2018-06-14T22:16:22.315Z,12.95
2018-06-14T22:18:50.854Z,11.85
2018-06-14T22:21:19.379Z,14.93
2018-06-14T22:23:47.903Z,12.00
2018-06-14T22:26:16.437Z,14.50
2018-06-14T22:28:44.991Z,15.43
2018-06-14T22:31:13.516Z,17.87
2018-06-14T22:33:53.265Z,15.20
2018-06-14T22:36:21.802Z,22.32
2018-06-14T22:38:50.018Z,19.37
2018-06-14T22:41:18.514Z,22.37
2018-06-14T22:43:47.062Z,17.70
2018-06-14T22:46:15.577Z,16.42
2018-06-14T22:48:44.198Z,23.32
2018-06-14T22:51:18.507Z,27.13
2018-06-14T22:53:47.285Z,27.45
2018-06-14T22:56:15.817Z,20.77
2018-06-14T22:58:44.489Z,23.60
2018-06-14T23:01:45.712Z,89.42
2018-06-14T23:04:18.591Z,47.93
2018-06-14T23:06:47.164Z,30.72
2018-06-14T23:10:27.425Z,23.70
2018-06-14T23:12:55.931Z,18.82
2018-06-14T23:15:24.443Z,22.02
2018-06-14T23:17:53.148Z,17.75
2018-06-14T23:20:22.768Z,20.23
2018-06-14T23:22:52.665Z,18.02
2018-06-14T23:25:22.213Z,18.40
2018-06-14T23:27:50.734Z,20.95
2018-06-14T23:30:19.431Z,25.82
2018-06-14T23:32:48.038Z,23.75
2018-06-14T23:35:17.185Z,22.90
2018-06-14T23:37:45.742Z,21.85
2018-06-14T23:40:14.269Z,23.32
2018-06-14T23:42:42.834Z,23.32
2018-06-14T23:45:11.353Z,27.75
2018-06-14T23:47:39.888Z,21.48
2018-06-14T23:50:08.402Z,26.00
2018-06-14T23:52:36.947Z,25.25
2018-06-14T23:55:05.494Z,25.48
2018-06-14T23:57:34.073Z,45.38
